createdAt,value
2022-10-19T00:02:30.635Z,12.31
2022-10-19T00:07:33.010Z,12.23
2022-10-19T00:12:34.173Z,12.16
2022-10-19T00:17:35.964Z,12.14
2022-10-19T00:22:38.160Z,11.99
2022-10-19T00:27:38.966Z,11.91
2022-10-19T00:32:39.784Z,11.82
2022-10-19T00:37:42.028Z,11.76
2022-10-19T00:42:42.833Z,11.74
2022-10-19T00:47:46.015Z,11.72
2022-10-19T00:52:48.356Z,11.66
2022-10-19T00:57:49.150Z,11.49
2022-10-19T01:02:49.946Z,11.49
2022-10-19T01:07:52.119Z,11.41
2022-10-19T01:13:09.014Z,11.33
2022-10-19T01:18:19.207Z,11.17
2022-10-19T01:23:57.153Z,11.21
2022-10-19T01:29:12.078Z,11.08
2022-10-19T01:34:20.494Z,11.03
2022-10-19T01:39:36.933Z,10.90
2022-10-19T01:44:46.093Z,10.76
2022-10-19T01:49:51.285Z,10.77
2022-10-19T01:54:57.517Z,10.76
2022-10-19T01:59:58.879Z,10.80
2022-10-19T02:05:02.550Z,10.81
2022-10-19T02:10:03.359Z,10.80
2022-10-19T02:15:10.405Z,10.85
2022-10-19T02:20:13.438Z,10.72
2022-10-19T02:25:14.529Z,10.55
2022-10-19T02:30:18.415Z,10.54
2022-10-19T02:35:20.913Z,10.47
2022-10-19T02:40:22.146Z,10.51
2022-10-19T02:45:26.987Z,10.54
2022-10-19T02:50:29.518Z,10.55
2022-10-19T02:55:31.738Z,10.54
2022-10-19T03:00:32.609Z,10.52
2022-10-19T03:05:34.735Z,10.45
2022-10-19T03:10:35.500Z,10.48
2022-10-19T03:15:36.283Z,10.47
2022-10-19T03:20:38.410Z,10.58
2022-10-19T03:25:39.202Z,10.50
2022-10-19T03:30:40.066Z,10.48
2022-10-19T03:35:42.298Z,10.46
2022-10-19T03:40:43.210Z,10.53
2022-10-19T03:45:47.283Z,10.43
2022-10-19T03:50:49.428Z,10.44
2022-10-19T03:55:50.209Z,10.35
2022-10-19T04:00:51.027Z,10.40
2022-10-19T04:05:53.514Z,10.44
2022-10-19T04:10:54.317Z,10.50
2022-10-19T04:15:55.152Z,10.50
2022-10-19T04:21:01.691Z,10.39
2022-10-19T04:26:02.881Z,10.43
2022-10-19T04:31:04.694Z,10.46
2022-10-19T04:36:09.454Z,10.41
2022-10-19T04:41:11.775Z,10.38
2022-10-19T04:46:14.981Z,10.43
2022-10-19T04:51:18.096Z,10.37
2022-10-19T04:56:21.040Z,10.34
2022-10-19T05:01:23.209Z,10.28
2022-10-19T05:06:26.018Z,10.26
2022-10-19T05:11:27.293Z,10.22
2022-10-19T05:16:28.215Z,10.28
2022-10-19T05:21:30.523Z,10.24
2022-10-19T05:26:31.312Z,10.27
2022-10-19T05:31:33.918Z,10.30
2022-10-19T05:36:37.815Z,10.37
2022-10-19T05:41:38.781Z,10.26
2022-10-19T05:46:39.596Z,10.27
2022-10-19T05:51:42.186Z,10.26
2022-10-19T05:56:43.537Z,10.32
2022-10-19T06:01:44.540Z,10.30
2022-10-19T06:06:46.739Z,10.36
2022-10-19T06:11:48.873Z,10.34
2022-10-19T06:16:49.657Z,10.43
2022-10-19T06:21:51.820Z,10.43
2022-10-19T06:26:52.580Z,10.44
2022-10-19T06:31:54.504Z,10.41
2022-10-19T06:36:56.698Z,10.52
2022-10-19T06:41:57.533Z,10.70
2022-10-19T06:46:59.143Z,10.90
2022-10-19T06:52:01.369Z,11.01
2022-10-19T06:57:02.163Z,11.13
2022-10-19T07:02:02.949Z,11.26
2022-10-19T07:07:05.676Z,11.21
2022-10-19T07:12:06.743Z,11.29
2022-10-19T07:17:07.937Z,11.35
2022-10-19T07:22:10.326Z,11.46
2022-10-19T07:27:11.327Z,11.40
2022-10-19T07:32:12.679Z,11.51
2022-10-19T07:37:14.820Z,11.53
2022-10-19T07:42:15.653Z,11.39
2022-10-19T07:47:16.492Z,11.50
2022-10-19T07:52:18.677Z,11.31
2022-10-19T07:57:19.578Z,11.40
2022-10-19T08:02:20.564Z,11.42
2022-10-19T08:07:22.717Z,11.33
2022-10-19T08:12:23.499Z,11.49
2022-10-19T08:17:24.292Z,11.42
2022-10-19T08:22:26.609Z,11.60
2022-10-19T08:27:27.527Z,11.55
2022-10-19T08:32:28.358Z,11.64
2022-10-19T08:37:44.370Z,11.67
2022-10-19T08:42:54.603Z,11.60
2022-10-19T08:48:01.643Z,11.96
2022-10-19T08:53:06.441Z,11.93
2022-10-19T08:58:21.573Z,11.96
2022-10-19T09:03:50.705Z,12.07
2022-10-19T09:08:51.561Z,12.13
2022-10-19T09:14:06.551Z,12.52
2022-10-19T09:19:16.745Z,12.71
2022-10-19T09:24:29.152Z,12.86
2022-10-19T09:29:38.468Z,12.99
2022-10-19T09:34:44.561Z,12.66
2022-10-19T09:39:52.391Z,12.57
2022-10-19T09:44:56.486Z,12.93
2022-10-19T09:50:08.599Z,12.86
2022-10-19T09:55:23.990Z,12.60
2022-10-19T10:00:32.190Z,12.44
2022-10-19T10:05:35.816Z,12.49
2022-10-19T10:10:40.535Z,12.79
2022-10-19T10:15:45.160Z,13.05
2022-10-19T10:21:04.862Z,12.46
2022-10-19T10:26:18.194Z,12.69
2022-10-19T10:31:24.727Z,12.74
2022-10-19T10:36:27.840Z,12.59
2022-10-19T10:41:32.626Z,12.24
2022-10-19T10:46:36.283Z,12.42
2022-10-19T10:51:40.654Z,12.68
2022-10-19T10:56:44.666Z,12.64
2022-10-19T11:01:56.981Z,12.82
2022-10-19T11:07:02.429Z,12.85
2022-10-19T11:12:10.134Z,12.85
2022-10-19T11:17:18.013Z,12.56
2022-10-19T11:22:27.401Z,12.42
2022-10-19T11:27:42.115Z,12.24
2022-10-19T11:33:02.628Z,12.15
2022-10-19T11:38:21.362Z,12.33
2022-10-19T11:43:35.824Z,12.51
2022-10-19T11:48:52.939Z,12.65
2022-10-19T11:54:10.028Z,12.59
2022-10-19T11:59:24.872Z,12.63
2022-10-19T12:04:43.104Z,12.67
2022-10-19T12:09:53.846Z,12.76
2022-10-19T12:15:13.992Z,13.00
2022-10-19T12:20:23.155Z,13.00
2022-10-19T12:25:24.579Z,12.74
2022-10-19T12:30:26.895Z,12.61
2022-10-19T12:35:52.465Z,12.69
2022-10-19T12:41:01.759Z,12.71
2022-10-19T12:46:14.776Z,12.92
2022-10-19T12:51:18.216Z,12.87
2022-10-19T12:56:23.811Z,12.89
2022-10-19T13:01:29.751Z,12.82
2022-10-19T13:06:36.144Z,12.82
2022-10-19T13:11:57.984Z,12.90
2022-10-19T13:17:01.932Z,12.87
2022-10-19T13:22:28.095Z,12.68
2022-10-19T13:27:38.425Z,12.88
2022-10-19T13:32:46.441Z,12.88
2022-10-19T13:37:47.327Z,12.94
2022-10-19T13:42:58.535Z,12.95
2022-10-19T13:48:15.899Z,12.65
2022-10-19T13:53:42.029Z,12.71
2022-10-19T13:59:09.710Z,12.84
2022-10-19T14:04:22.298Z,12.71
2022-10-19T14:09:39.401Z,12.54
2022-10-19T14:19:52.322Z,12.75
2022-10-19T14:24:53.275Z,12.77
2022-10-19T14:29:55.443Z,12.66
2022-10-19T14:35:02.064Z,12.50
2022-10-19T14:40:08.325Z,12.58
2022-10-19T14:45:16.058Z,12.53
2022-10-19T14:50:19.070Z,12.39
2022-10-19T14:55:22.074Z,12.36
2022-10-19T15:05:36.571Z,12.25
2022-10-19T15:10:43.764Z,12.21
2022-10-19T15:15:44.570Z,12.21
2022-10-19T15:20:54.998Z,12.21
2022-10-19T15:26:17.665Z,12.11
2022-10-19T15:31:21.567Z,11.97
2022-10-19T15:36:25.161Z,11.86
2022-10-19T15:41:29.080Z,11.81
2022-10-19T15:46:32.603Z,11.85
2022-10-19T15:51:37.572Z,11.81
2022-10-19T15:56:40.507Z,11.80
2022-10-19T16:01:42.020Z,11.74
2022-10-19T16:06:46.181Z,11.69
2022-10-19T16:11:47.639Z,11.67
2022-10-19T16:16:51.136Z,11.65
2022-10-19T16:21:53.650Z,11.67
2022-10-19T16:26:54.415Z,11.61
2022-10-19T16:31:55.193Z,11.47
2022-10-19T16:36:57.333Z,11.39
2022-10-19T16:41:58.177Z,11.47
2022-10-19T16:46:59.810Z,11.48
2022-10-19T16:52:02.008Z,11.43
2022-10-19T16:57:07.121Z,11.44
2022-10-19T17:02:11.030Z,11.50
2022-10-19T17:07:13.282Z,11.31
2022-10-19T17:12:14.143Z,11.21
2022-10-19T17:17:17.150Z,10.95
2022-10-19T17:22:19.347Z,10.71
2022-10-19T17:27:20.181Z,10.60
2022-10-19T17:32:20.966Z,10.48
2022-10-19T17:37:23.552Z,10.33
2022-10-19T17:42:24.396Z,10.06
2022-10-19T17:47:25.152Z,9.92
2022-10-19T17:52:27.292Z,9.62
2022-10-19T17:57:28.152Z,9.50
2022-10-19T18:02:29.041Z,9.43
2022-10-19T18:07:32.206Z,9.26
2022-10-19T18:12:33.173Z,9.13
2022-10-19T18:17:34.184Z,8.97
2022-10-19T18:22:36.627Z,8.88
2022-10-19T18:27:37.806Z,8.77
2022-10-19T18:32:38.808Z,8.63
2022-10-19T18:37:40.931Z,8.49
2022-10-19T18:42:41.709Z,8.43
2022-10-19T18:47:42.501Z,8.30
2022-10-19T18:52:44.737Z,8.19
2022-10-19T18:57:45.550Z,7.98
2022-10-19T19:02:54.251Z,7.94
2022-10-19T19:07:56.651Z,8.07
2022-10-19T19:12:57.486Z,7.86
2022-10-19T19:17:58.513Z,7.77
2022-10-19T19:23:00.685Z,7.65
2022-10-19T19:28:01.591Z,7.58
2022-10-19T19:33:02.399Z,7.55
2022-10-19T19:38:04.651Z,7.55
2022-10-19T19:43:05.427Z,7.50
2022-10-19T19:48:08.210Z,7.39
2022-10-19T19:53:10.516Z,7.30
2022-10-19T19:58:11.272Z,7.30
2022-10-19T20:03:13.246Z,7.25
2022-10-19T20:08:15.424Z,7.17
2022-10-19T20:13:16.317Z,7.13
2022-10-19T20:18:17.328Z,7.05
2022-10-19T20:23:22.642Z,6.96
2022-10-19T20:28:23.645Z,6.88
2022-10-19T20:33:24.428Z,6.86
2022-10-19T20:38:27.649Z,6.84
2022-10-19T20:43:28.500Z,6.78
2022-10-19T20:48:29.291Z,6.74
2022-10-19T20:53:31.469Z,6.75
2022-10-19T20:58:32.464Z,6.72
2022-10-19T21:03:33.313Z,6.66
2022-10-19T21:08:36.258Z,6.63
2022-10-19T21:13:37.066Z,6.60
2022-10-19T21:18:37.952Z,6.49
2022-10-19T21:23:40.219Z,6.48
2022-10-19T21:28:41.765Z,6.29
2022-10-19T21:33:43.006Z,6.24
2022-10-19T21:38:45.183Z,6.29
2022-10-19T21:43:46.034Z,6.26
2022-10-19T21:48:47.422Z,6.21
2022-10-19T21:53:49.657Z,6.25
2022-10-19T21:58:52.423Z,6.18
2022-10-19T22:03:57.232Z,6.18
2022-10-19T22:08:59.989Z,6.11
2022-10-19T22:14:02.436Z,6.10
2022-10-19T22:19:04.974Z,6.05
2022-10-19T22:24:10.033Z,6.08
2022-10-19T22:29:11.461Z,6.07
2022-10-19T22:34:14.627Z,5.97
2022-10-19T22:39:16.951Z,5.79
2022-10-19T22:44:17.701Z,5.83
2022-10-19T22:49:18.418Z,5.83
2022-10-19T22:54:20.512Z,5.81
2022-10-19T22:59:21.270Z,5.56
2022-10-19T23:04:22.151Z,5.56
2022-10-19T23:09:24.474Z,5.53
2022-10-19T23:14:25.274Z,5.55
2022-10-19T23:19:26.043Z,5.55
2022-10-19T23:24:28.153Z,5.43
2022-10-19T23:29:28.934Z,5.43
2022-10-19T23:34:29.714Z,5.43
2022-10-19T23:39:31.837Z,5.43
2022-10-19T23:44:32.640Z,5.34
2022-10-19T23:49:33.380Z,5.21
2022-10-19T23:54:35.565Z,5.19
2022-10-19T23:59:36.373Z,5.16
